sensor_id;sensor_type;location;lat;lon;timestamp;pressure;altitude;pressure_sealevel;temperature;humidity
65553;BME280;72126;51.560;14.368;2024-03-23T00:53:59;99460.31;;;13.69;61.33
65553;BME280;72126;51.560;14.368;2024-03-23T00:56:24;99463.13;;;13.68;61.57
65553;BME280;72126;51.560;14.368;2024-03-23T00:58:49;99459.69;;;13.67;61.62
65553;BME280;72126;51.560;14.368;2024-03-23T01:01:14;99450.97;;;13.67;61.91
65553;BME280;72126;51.560;14.368;2024-03-23T01:03:39;99440.47;;;13.67;61.83
65553;BME280;72126;51.560;14.368;2024-03-23T01:06:05;99448.34;;;13.67;61.35
65553;BME280;72126;51.560;14.368;2024-03-23T01:08:30;99450.97;;;13.67;61.43
65553;BME280;72126;51.560;14.368;2024-03-23T01:10:59;99442.28;;;13.66;61.90
65553;BME280;72126;51.560;14.368;2024-03-23T01:13:24;99440.66;;;13.65;61.66
65553;BME280;72126;51.560;14.368;2024-03-23T01:15:53;99450.16;;;13.66;61.61
65553;BME280;72126;51.560;14.368;2024-03-23T01:18:19;99445.13;;;13.65;61.67
65553;BME280;72126;51.560;14.368;2024-03-23T01:20:45;99434.78;;;13.63;61.58
65553;BME280;72126;51.560;14.368;2024-03-23T01:23:11;99435.59;;;13.64;61.70
65553;BME280;72126;51.560;14.368;2024-03-23T01:25:36;99433.97;;;13.63;61.61
65553;BME280;72126;51.560;14.368;2024-03-23T01:28:01;99443.50;;;13.64;61.81
65553;BME280;72126;51.560;14.368;2024-03-23T01:30:27;99446.13;;;13.64;61.51
65553;BME280;72126;51.560;14.368;2024-03-23T01:32:52;99438.25;;;13.64;61.57
65553;BME280;72126;51.560;14.368;2024-03-23T01:35:17;99444.47;;;13.63;61.83
65553;BME280;72126;51.560;14.368;2024-03-23T01:37:42;99430.53;;;13.62;61.73
65553;BME280;72126;51.560;14.368;2024-03-23T01:40:08;99434.97;;;13.62;61.53
65553;BME280;72126;51.560;14.368;2024-03-23T01:42:33;99434.97;;;13.62;61.73
65553;BME280;72126;51.560;14.368;2024-03-23T01:44:58;99434.16;;;13.61;61.80
65553;BME280;72126;51.560;14.368;2024-03-23T01:47:23;99430.72;;;13.61;61.75
65553;BME280;72126;51.560;14.368;2024-03-23T01:49:48;99427.28;;;13.60;61.67
65553;BME280;72126;51.560;14.368;2024-03-23T01:52:14;99433.56;;;13.59;61.58
65553;BME280;72126;51.560;14.368;2024-03-23T01:54:40;99427.28;;;13.60;61.78
65553;BME280;72126;51.560;14.368;2024-03-23T01:57:05;99410.69;;;13.60;61.75
65553;BME280;72126;51.560;14.368;2024-03-23T01:59:31;99402.81;;;13.60;61.60
65553;BME280;72126;51.560;14.368;2024-03-23T02:01:56;99399.38;;;13.59;61.81
65553;BME280;72126;51.560;14.368;2024-03-23T02:04:21;99400.19;;;13.60;61.83
65553;BME280;72126;51.560;14.368;2024-03-23T02:06:46;99395.13;;;13.58;61.65
65553;BME280;72126;51.560;14.368;2024-03-23T02:09:12;99395.13;;;13.58;61.83
65553;BME280;72126;51.560;14.368;2024-03-23T02:11:37;99397.94;;;13.57;61.90
65553;BME280;72126;51.560;14.368;2024-03-23T02:14:02;99395.31;;;13.57;61.60
65553;BME280;72126;51.560;14.368;2024-03-23T02:16:30;99384.78;;;13.57;62.14
65553;BME280;72126;51.560;14.368;2024-03-23T02:18:55;99387.41;;;13.57;61.94
65553;BME280;72126;51.560;14.368;2024-03-23T02:21:22;99370.81;;;13.56;61.55
65553;BME280;72126;51.560;14.368;2024-03-23T02:23:47;99372.66;;;13.56;61.68
65553;BME280;72126;51.560;14.368;2024-03-23T02:26:12;99367.38;;;13.56;61.98
65553;BME280;72126;51.560;14.368;2024-03-23T02:28:38;99370.22;;;13.54;61.79
65553;BME280;72126;51.560;14.368;2024-03-23T02:31:03;99363.34;;;13.53;61.94
65553;BME280;72126;51.560;14.368;2024-03-23T02:33:28;99359.72;;;13.54;62.06
65553;BME280;72126;51.560;14.368;2024-03-23T02:35:56;99343.94;;;13.54;61.97
65553;BME280;72126;51.560;14.368;2024-03-23T02:38:21;99334.44;;;13.53;61.48
65553;BME280;72126;51.560;14.368;2024-03-23T02:40:46;99326.53;;;13.53;61.62
65553;BME280;72126;51.560;14.368;2024-03-23T02:43:11;99316.00;;;13.53;62.03
65553;BME280;72126;51.560;14.368;2024-03-23T02:45:36;99317.84;;;13.53;61.79
65553;BME280;72126;51.560;14.368;2024-03-23T02:48:02;99330.16;;;13.52;61.80
65553;BME280;72126;51.560;14.368;2024-03-23T02:50:27;99330.16;;;13.52;61.78
65553;BME280;72126;51.560;14.368;2024-03-23T02:52:52;99331.16;;;13.51;61.63
65553;BME280;72126;51.560;14.368;2024-03-23T02:55:17;99333.63;;;13.53;61.71
65553;BME280;72126;51.560;14.368;2024-03-23T02:57:42;99327.53;;;13.52;61.95
65553;BME280;72126;51.560;14.368;2024-03-23T03:00:08;99325.91;;;13.51;61.83
65553;BME280;72126;51.560;14.368;2024-03-23T03:02:33;99331.97;;;13.52;61.75
65553;BME280;72126;51.560;14.368;2024-03-23T03:04:59;99318.81;;;13.52;61.58
65553;BME280;72126;51.560;14.368;2024-03-23T03:07:32;99319.03;;;13.50;61.76
65553;BME280;72126;51.560;14.368;2024-03-23T03:10:05;99318.22;;;13.49;61.86
65553;BME280;72126;51.560;14.368;2024-03-23T03:12:31;99311.13;;;13.50;61.74
65553;BME280;72126;51.560;14.368;2024-03-23T03:14:56;99299.00;;;13.49;61.72
65553;BME280;72126;51.560;14.368;2024-03-23T03:17:21;99286.66;;;13.49;61.79
65553;BME280;72126;51.560;14.368;2024-03-23T03:19:46;99281.63;;;13.48;61.88
65553;BME280;72126;51.560;14.368;2024-03-23T03:22:11;99300.03;;;13.48;61.93
65553;BME280;72126;51.560;14.368;2024-03-23T03:24:36;99313.16;;;13.48;61.95
65553;BME280;72126;51.560;14.368;2024-03-23T03:27:02;99317.63;;;13.47;61.99
65553;BME280;72126;51.560;14.368;2024-03-23T03:29:27;99308.72;;;13.48;61.96
65553;BME280;72126;51.560;14.368;2024-03-23T03:31:52;99306.28;;;13.47;61.96
65553;BME280;72126;51.560;14.368;2024-03-23T03:34:17;99307.09;;;13.47;61.86
65553;BME280;72126;51.560;14.368;2024-03-23T03:36:42;99303.66;;;13.47;62.19
65553;BME280;72126;51.560;14.368;2024-03-23T03:39:11;99300.19;;;13.46;61.95
65553;BME280;72126;51.560;14.368;2024-03-23T03:41:36;99291.72;;;13.44;61.96
65553;BME280;72126;51.560;14.368;2024-03-23T03:44:01;99303.84;;;13.45;61.77
65553;BME280;72126;51.560;14.368;2024-03-23T03:46:26;99295.16;;;13.45;61.99
65553;BME280;72126;51.560;14.368;2024-03-23T03:48:52;99304.06;;;13.44;61.85
65553;BME280;72126;51.560;14.368;2024-03-23T03:51:17;99305.66;;;13.45;62.22
65553;BME280;72126;51.560;14.368;2024-03-23T03:53:42;99308.50;;;13.43;62.08
65553;BME280;72126;51.560;14.368;2024-03-23T03:56:07;99302.22;;;13.44;61.99
65553;BME280;72126;51.560;14.368;2024-03-23T03:58:32;99296.97;;;13.44;61.99
65553;BME280;72126;51.560;14.368;2024-03-23T04:00:58;99290.91;;;13.44;61.85
65553;BME280;72126;51.560;14.368;2024-03-23T04:03:23;99279.56;;;13.43;61.80
65553;BME280;72126;51.560;14.368;2024-03-23T04:05:55;99279.56;;;13.43;61.90
65553;BME280;72126;51.560;14.368;2024-03-23T04:08:21;99285.84;;;13.42;62.07
65553;BME280;72126;51.560;14.368;2024-03-23T04:10:46;99284.03;;;13.43;62.05
65553;BME280;72126;51.560;14.368;2024-03-23T04:13:14;99282.41;;;13.42;61.97
65553;BME280;72126;51.560;14.368;2024-03-23T04:15:39;99286.88;;;13.41;62.03
65553;BME280;72126;51.560;14.368;2024-03-23T04:18:05;99287.69;;;13.42;62.13
65553;BME280;72126;51.560;14.368;2024-03-23T04:20:30;99281.59;;;13.41;61.66
65553;BME280;72126;51.560;14.368;2024-03-23T04:22:55;99279.16;;;13.40;61.98
65553;BME280;72126;51.560;14.368;2024-03-23T04:25:21;99266.81;;;13.40;61.91
65553;BME280;72126;51.560;14.368;2024-03-23T04:27:46;99262.56;;;13.39;62.29
65553;BME280;72126;51.560;14.368;2024-03-23T04:30:11;99261.75;;;13.39;61.77
65553;BME280;72126;51.560;14.368;2024-03-23T04:32:37;99254.69;;;13.39;61.85
65553;BME280;72126;51.560;14.368;2024-03-23T04:35:03;99243.38;;;13.39;62.08
65553;BME280;72126;51.560;14.368;2024-03-23T04:37:28;99243.56;;;13.37;62.15
65553;BME280;72126;51.560;14.368;2024-03-23T04:39:53;99239.31;;;13.36;62.10
65553;BME280;72126;51.560;14.368;2024-03-23T04:42:18;99230.81;;;13.34;62.22
65553;BME280;72126;51.560;14.368;2024-03-23T04:44:44;99230.81;;;13.34;62.27
65553;BME280;72126;51.560;14.368;2024-03-23T04:47:09;99235.47;;;13.32;62.20
65553;BME280;72126;51.560;14.368;2024-03-23T04:49:34;99235.47;;;13.32;62.16
65553;BME280;72126;51.560;14.368;2024-03-23T04:51:59;99239.13;;;13.31;62.05
65553;BME280;72126;51.560;14.368;2024-03-23T04:54:24;99229.63;;;13.30;62.18
65553;BME280;72126;51.560;14.368;2024-03-23T04:56:50;99222.13;;;13.27;62.06
65553;BME280;72126;51.560;14.368;2024-03-23T04:59:15;99226.16;;;13.30;62.30
65553;BME280;72126;51.560;14.368;2024-03-23T05:01:40;99227.38;;;13.27;62.28
65553;BME280;72126;51.560;14.368;2024-03-23T05:04:05;99228.19;;;13.28;62.14
65553;BME280;72126;51.560;14.368;2024-03-23T05:06:30;99227.16;;;13.29;61.74
65553;BME280;72126;51.560;14.368;2024-03-23T05:08:56;99216.84;;;13.27;61.81
65553;BME280;72126;51.560;14.368;2024-03-23T05:11:21;99215.84;;;13.28;61.99
65553;BME280;72126;51.560;14.368;2024-03-23T05:13:46;99213.41;;;13.27;62.24
65553;BME280;72126;51.560;14.368;2024-03-23T05:16:11;99207.34;;;13.26;61.91
65553;BME280;72126;51.560;14.368;2024-03-23T05:18:37;99193.19;;;13.27;61.99
65553;BME280;72126;51.560;14.368;2024-03-23T05:21:02;99192.41;;;13.27;62.22
65553;BME280;72126;51.560;14.368;2024-03-23T05:23:30;99188.97;;;13.26;62.19
65553;BME280;72126;51.560;14.368;2024-03-23T05:25:56;99175.81;;;13.26;62.16
65553;BME280;72126;51.560;14.368;2024-03-23T05:28:22;99161.88;;;13.26;62.10
65553;BME280;72126;51.560;14.368;2024-03-23T05:30:54;99155.00;;;13.25;61.89
65553;BME280;72126;51.560;14.368;2024-03-23T05:33:19;99166.31;;;13.25;62.10
65553;BME280;72126;51.560;14.368;2024-03-23T05:35:45;99169.94;;;13.24;62.08
65553;BME280;72126;51.560;14.368;2024-03-23T05:38:11;99162.25;;;13.22;61.93
65553;BME280;72126;51.560;14.368;2024-03-23T05:40:36;99166.72;;;13.22;62.05
65553;BME280;72126;51.560;14.368;2024-03-23T05:43:01;99151.75;;;13.22;62.10
65553;BME280;72126;51.560;14.368;2024-03-23T05:45:26;99145.47;;;13.23;62.40
65553;BME280;72126;51.560;14.368;2024-03-23T05:47:52;99129.91;;;13.22;62.05
65553;BME280;72126;51.560;14.368;2024-03-23T05:50:17;99103.63;;;13.22;62.21
65553;BME280;72126;51.560;14.368;2024-03-23T05:52:42;99065.22;;;13.21;62.35
65553;BME280;72126;51.560;14.368;2024-03-23T05:55:08;99055.53;;;13.21;62.30
65553;BME280;72126;51.560;14.368;2024-03-23T05:57:33;99076.53;;;13.21;62.25
65553;BME280;72126;51.560;14.368;2024-03-23T05:59:58;99089.06;;;13.19;62.16
65553;BME280;72126;51.560;14.368;2024-03-23T06:02:24;99082.16;;;13.18;61.93
65553;BME280;72126;51.560;14.368;2024-03-23T06:04:49;99076.53;;;13.21;61.98
65553;BME280;72126;51.560;14.368;2024-03-23T06:07:14;99076.72;;;13.20;61.90
65553;BME280;72126;51.560;14.368;2024-03-23T06:09:42;99074.09;;;13.20;62.04
65553;BME280;72126;51.560;14.368;2024-03-23T06:12:08;99067.22;;;13.19;62.21
65553;BME280;72126;51.560;14.368;2024-03-23T06:14:34;99051.47;;;13.19;62.04
65553;BME280;72126;51.560;14.368;2024-03-23T06:16:59;99040.09;;;13.18;62.21
65553;BME280;72126;51.560;14.368;2024-03-23T06:19:25;99029.59;;;13.18;62.09
65553;BME280;72126;51.560;14.368;2024-03-23T06:21:50;99029.59;;;13.18;61.85
65553;BME280;72126;51.560;14.368;2024-03-23T06:24:15;99017.47;;;13.17;62.40
65553;BME280;72126;51.560;14.368;2024-03-23T06:26:41;99022.72;;;13.17;62.17
65553;BME280;72126;51.560;14.368;2024-03-23T06:29:06;99014.03;;;13.17;62.27
65553;BME280;72126;51.560;14.368;2024-03-23T06:31:31;99019.09;;;13.12;61.80
65553;BME280;72126;51.560;14.368;2024-03-23T06:33:56;99022.72;;;13.17;62.05
65553;BME280;72126;51.560;14.368;2024-03-23T06:36:22;99021.94;;;13.17;61.85
65553;BME280;72126;51.560;14.368;2024-03-23T06:38:47;99020.09;;;13.17;62.02
65553;BME280;72126;51.560;14.368;2024-03-23T06:41:12;99010.41;;;13.18;61.88
65553;BME280;72126;51.560;14.368;2024-03-23T06:43:37;99017.69;;;13.16;62.12
65553;BME280;72126;51.560;14.368;2024-03-23T06:46:03;99007.38;;;13.14;62.04
65553;BME280;72126;51.560;14.368;2024-03-23T06:48:28;99009.00;;;13.15;62.02
65553;BME280;72126;51.560;14.368;2024-03-23T06:50:57;99009.81;;;13.16;62.15
65553;BME280;72126;51.560;14.368;2024-03-23T06:53:23;98997.69;;;13.15;62.23
65553;BME280;72126;51.560;14.368;2024-03-23T06:55:52;98992.44;;;13.15;62.31
65553;BME280;72126;51.560;14.368;2024-03-23T06:58:21;99006.59;;;13.14;62.26
65553;BME280;72126;51.560;14.368;2024-03-23T07:00:47;99008.19;;;13.15;62.29
65553;BME280;72126;51.560;14.368;2024-03-23T07:03:12;99010.19;;;13.13;62.05
65553;BME280;72126;51.560;14.368;2024-03-23T07:05:37;99002.94;;;13.15;62.21
65553;BME280;72126;51.560;14.368;2024-03-23T07:08:02;99001.34;;;13.14;62.35
65553;BME280;72126;51.560;14.368;2024-03-23T07:10:28;99007.56;;;13.13;62.02
65553;BME280;72126;51.560;14.368;2024-03-23T07:12:53;99000.72;;;13.12;62.58
65553;BME280;72126;51.560;14.368;2024-03-23T07:15:18;98981.50;;;13.11;62.13
65553;BME280;72126;51.560;14.368;2024-03-23T07:17:47;98966.53;;;13.12;62.00
65553;BME280;72126;51.560;14.368;2024-03-23T07:20:12;98955.22;;;13.11;62.11
65553;BME280;72126;51.560;14.368;2024-03-23T07:22:37;98961.28;;;13.12;62.44
65553;BME280;72126;51.560;14.368;2024-03-23T07:25:02;98961.28;;;13.12;62.44
65553;BME280;72126;51.560;14.368;2024-03-23T07:27:27;98961.28;;;13.12;62.42
65553;BME280;72126;51.560;14.368;2024-03-23T07:29:53;98963.13;;;13.11;62.21
65553;BME280;72126;51.560;14.368;2024-03-23T07:32:18;98955.22;;;13.11;62.28
65553;BME280;72126;51.560;14.368;2024-03-23T07:34:43;98940.28;;;13.12;61.88
65553;BME280;72126;51.560;14.368;2024-03-23T07:37:08;98938.66;;;13.11;62.29
65553;BME280;72126;51.560;14.368;2024-03-23T07:39:34;98946.53;;;13.11;61.94
65553;BME280;72126;51.560;14.368;2024-03-23T07:41:59;98949.16;;;13.11;62.20
65553;BME280;72126;51.560;14.368;2024-03-23T07:44:24;98951.81;;;13.11;62.28
65553;BME280;72126;51.560;14.368;2024-03-23T07:46:49;98954.63;;;13.09;61.75
65553;BME280;72126;51.560;14.368;2024-03-23T07:49:14;98948.38;;;13.10;62.31
65553;BME280;72126;51.560;14.368;2024-03-23T07:51:40;98935.44;;;13.09;62.37
65553;BME280;72126;51.560;14.368;2024-03-23T07:54:05;98936.25;;;13.09;62.09
65553;BME280;72126;51.560;14.368;2024-03-23T07:56:30;98951.22;;;13.09;62.00
65553;BME280;72126;51.560;14.368;2024-03-23T07:58:55;98944.94;;;13.10;62.01
65553;BME280;72126;51.560;14.368;2024-03-23T08:01:20;98946.75;;;13.09;62.07
65553;BME280;72126;51.560;14.368;2024-03-23T08:03:46;98944.13;;;13.09;61.95
65553;BME280;72126;51.560;14.368;2024-03-23T08:06:19;98937.25;;;13.08;62.14
65553;BME280;72126;51.560;14.368;2024-03-23T08:08:45;98927.56;;;13.09;62.14
65553;BME280;72126;51.560;14.368;2024-03-23T08:11:10;98919.69;;;13.09;62.09
65553;BME280;72126;51.560;14.368;2024-03-23T08:13:39;98903.28;;;13.07;62.19
65553;BME280;72126;51.560;14.368;2024-03-23T08:16:04;98882.09;;;13.08;62.22
65553;BME280;72126;51.560;14.368;2024-03-23T08:18:30;98865.53;;;13.08;62.40
65553;BME280;72126;51.560;14.368;2024-03-23T08:20:59;98842.88;;;13.07;62.01
65553;BME280;72126;51.560;14.368;2024-03-23T08:23:26;98805.09;;;13.08;62.14
65553;BME280;72126;51.560;14.368;2024-03-23T08:25:52;98797.41;;;13.06;62.27
65553;BME280;72126;51.560;14.368;2024-03-23T08:28:22;98798.19;;;13.07;62.17
65553;BME280;72126;51.560;14.368;2024-03-23T08:30:47;98805.09;;;13.08;61.95
65553;BME280;72126;51.560;14.368;2024-03-23T08:33:12;98797.22;;;13.08;62.32
65553;BME280;72126;51.560;14.368;2024-03-23T08:35:38;98799.22;;;13.06;62.03
65553;BME280;72126;51.560;14.368;2024-03-23T08:38:03;98806.88;;;13.07;61.97
65553;BME280;72126;51.560;14.368;2024-03-23T08:40:29;98803.47;;;13.07;62.06
65553;BME280;72126;51.560;14.368;2024-03-23T08:42:54;98804.47;;;13.06;62.44
65553;BME280;72126;51.560;14.368;2024-03-23T08:45:19;98794.78;;;13.06;62.45
65553;BME280;72126;51.560;14.368;2024-03-23T08:47:44;98793.97;;;13.06;62.12
65553;BME280;72126;51.560;14.368;2024-03-23T08:50:10;98780.84;;;13.06;62.46
65553;BME280;72126;51.560;14.368;2024-03-23T08:52:35;98758.00;;;13.06;62.43
65553;BME280;72126;51.560;14.368;2024-03-23T08:55:00;98742.22;;;13.06;62.27
65553;BME280;72126;51.560;14.368;2024-03-23T08:57:25;98730.91;;;13.06;62.36
65553;BME280;72126;51.560;14.368;2024-03-23T08:59:51;98741.41;;;13.06;62.05
65553;BME280;72126;51.560;14.368;2024-03-23T09:02:16;98732.75;;;13.05;62.29
65553;BME280;72126;51.560;14.368;2024-03-23T09:04:41;98736.16;;;13.06;62.19
65553;BME280;72126;51.560;14.368;2024-03-23T09:07:07;98728.50;;;13.04;62.07
65553;BME280;72126;51.560;14.368;2024-03-23T09:09:32;98729.09;;;13.06;62.24
65553;BME280;72126;51.560;14.368;2024-03-23T09:11:57;98733.75;;;13.04;62.13
65553;BME280;72126;51.560;14.368;2024-03-23T09:14:22;98745.88;;;13.05;62.32
65553;BME280;72126;51.560;14.368;2024-03-23T09:16:49;98753.75;;;13.05;62.09
65553;BME280;72126;51.560;14.368;2024-03-23T09:19:15;98751.94;;;13.06;62.42
65553;BME280;72126;51.560;14.368;2024-03-23T09:21:40;98753.53;;;13.07;62.59
65553;BME280;72126;51.560;14.368;2024-03-23T09:24:05;98749.31;;;13.06;62.40
65553;BME280;72126;51.560;14.368;2024-03-23T09:26:31;98751.13;;;13.05;62.28
65553;BME280;72126;51.560;14.368;2024-03-23T09:28:56;98748.28;;;13.07;62.25
65553;BME280;72126;51.560;14.368;2024-03-23T09:31:21;98741.41;;;13.06;62.42
65553;BME280;72126;51.560;14.368;2024-03-23T09:33:46;98744.84;;;13.06;62.16
65553;BME280;72126;51.560;14.368;2024-03-23T09:36:11;98751.72;;;13.07;62.51
65553;BME280;72126;51.560;14.368;2024-03-23T09:38:37;98738.78;;;13.06;62.18
65553;BME280;72126;51.560;14.368;2024-03-23T09:41:07;98719.59;;;13.05;62.19
65553;BME280;72126;51.560;14.368;2024-03-23T09:43:32;98703.63;;;13.07;62.11
65553;BME280;72126;51.560;14.368;2024-03-23T09:45:58;98706.88;;;13.09;62.17
65553;BME280;72126;51.560;14.368;2024-03-23T09:48:23;98707.88;;;13.08;62.02
65553;BME280;72126;51.560;14.368;2024-03-23T09:50:48;98698.38;;;13.07;62.28
65553;BME280;72126;51.560;14.368;2024-03-23T09:53:14;98703.63;;;13.07;62.25
65553;BME280;72126;51.560;14.368;2024-03-23T09:55:43;98718.56;;;13.06;62.03
65553;BME280;72126;51.560;14.368;2024-03-23T09:58:12;98724.06;;;13.05;62.52
65553;BME280;72126;51.560;14.368;2024-03-23T10:00:38;98730.09;;;13.05;61.94
65553;BME280;72126;51.560;14.368;2024-03-23T10:03:04;98724.06;;;13.05;62.26
65553;BME280;72126;51.560;14.368;2024-03-23T10:05:29;98769.72;;;13.04;62.55
65553;BME280;72126;51.560;14.368;2024-03-23T10:07:55;98761.63;;;13.05;62.32
65553;BME280;72126;51.560;14.368;2024-03-23T10:10:20;98745.28;;;13.03;62.52
65553;BME280;72126;51.560;14.368;2024-03-23T10:12:47;98804.69;;;13.04;62.35
65553;BME280;72126;51.560;14.368;2024-03-23T10:15:24;98777.63;;;13.04;62.39
65553;BME280;72126;51.560;14.368;2024-03-23T10:17:50;98792.56;;;13.03;62.29
65553;BME280;72126;51.560;14.368;2024-03-23T10:20:22;98786.50;;;13.03;62.65
65553;BME280;72126;51.560;14.368;2024-03-23T10:22:51;98839.25;;;13.01;62.54
65553;BME280;72126;51.560;14.368;2024-03-23T10:25:17;98842.69;;;13.02;62.30
65553;BME280;72126;51.560;14.368;2024-03-23T10:27:42;98843.91;;;12.99;62.16
65553;BME280;72126;51.560;14.368;2024-03-23T10:32:34;98855.44;;;12.98;62.27
65553;BME280;72126;51.560;14.368;2024-03-23T10:37:44;98861.50;;;12.98;62.69
65553;BME280;72126;51.560;14.368;2024-03-23T10:40:11;98885.13;;;12.98;62.29
65553;BME280;72126;51.560;14.368;2024-03-23T10:42:37;98897.88;;;12.95;62.29
65553;BME280;72126;51.560;14.368;2024-03-23T10:45:04;98915.44;;;12.94;62.25
65553;BME280;72126;51.560;14.368;2024-03-23T10:47:30;98926.56;;;12.96;62.27
65553;BME280;72126;51.560;14.368;2024-03-23T10:49:55;98944.97;;;12.96;62.72
65553;BME280;72126;51.560;14.368;2024-03-23T10:52:20;98950.22;;;12.96;62.43
65553;BME280;72126;51.560;14.368;2024-03-23T10:54:47;98943.31;;;12.95;62.61
65553;BME280;72126;51.560;14.368;2024-03-23T10:57:17;98955.66;;;12.95;62.71
65553;BME280;72126;51.560;14.368;2024-03-23T10:59:44;98975.06;;;12.94;62.38
65553;BME280;72126;51.560;14.368;2024-03-23T11:02:18;99001.53;;;12.92;62.34
65553;BME280;72126;51.560;14.368;2024-03-23T11:04:44;99020.72;;;12.93;62.80
65553;BME280;72126;51.560;14.368;2024-03-23T11:09:53;99039.31;;;12.91;62.22
65553;BME280;72126;51.560;14.368;2024-03-23T11:14:47;99046.41;;;12.91;62.75
65553;BME280;72126;51.560;14.368;2024-03-23T11:17:18;99066.78;;;12.89;62.12
65553;BME280;72126;51.560;14.368;2024-03-23T11:19:43;99077.28;;;12.89;62.55
65553;BME280;72126;51.560;14.368;2024-03-23T11:22:08;99096.50;;;12.89;62.28
65553;BME280;72126;51.560;14.368;2024-03-23T11:24:33;99100.13;;;12.88;62.74
65553;BME280;72126;51.560;14.368;2024-03-23T11:27:00;99096.69;;;12.88;62.15
65553;BME280;72126;51.560;14.368;2024-03-23T11:29:25;99106.41;;;12.87;62.95
65553;BME280;72126;51.560;14.368;2024-03-23T11:31:52;99127.00;;;12.84;62.63
65553;BME280;72126;51.560;14.368;2024-03-23T11:34:18;99125.78;;;12.80;62.72
65553;BME280;72126;51.560;14.368;2024-03-23T11:36:44;99137.47;;;12.77;62.41
65553;BME280;72126;51.560;14.368;2024-03-23T11:42:03;99152.63;;;12.75;62.66
65553;BME280;72126;51.560;14.368;2024-03-23T11:44:28;99170.81;;;12.77;62.42
65553;BME280;72126;51.560;14.368;2024-03-23T11:46:53;99179.50;;;12.77;62.26
65553;BME280;72126;51.560;14.368;2024-03-23T11:49:25;99181.94;;;12.79;62.28
65553;BME280;72126;51.560;14.368;2024-03-23T11:51:52;99184.38;;;12.80;62.47
65553;BME280;72126;51.560;14.368;2024-03-23T11:54:21;99172.44;;;12.84;62.48
65553;BME280;72126;51.560;14.368;2024-03-23T11:57:00;99164.41;;;12.86;62.02
65553;BME280;72126;51.560;14.368;2024-03-23T11:59:35;99161.56;;;12.87;62.56
65553;BME280;72126;51.560;14.368;2024-03-23T12:02:11;99180.53;;;12.89;62.75
65553;BME280;72126;51.560;14.368;2024-03-23T12:04:38;99199.56;;;12.91;62.72
65553;BME280;72126;51.560;14.368;2024-03-23T12:09:41;99218.56;;;12.93;62.50
65553;BME280;72126;51.560;14.368;2024-03-23T12:12:13;99232.28;;;12.95;62.40
65553;BME280;72126;51.560;14.368;2024-03-23T12:14:38;99249.50;;;12.98;63.00
65553;BME280;72126;51.560;14.368;2024-03-23T12:17:14;99252.94;;;12.98;63.13
65553;BME280;72126;51.560;14.368;2024-03-23T12:19:40;99248.28;;;13.01;62.70
65553;BME280;72126;51.560;14.368;2024-03-23T12:22:05;99264.84;;;13.01;62.65
65553;BME280;72126;51.560;14.368;2024-03-23T12:24:34;99269.13;;;13.02;63.07
65553;BME280;72126;51.560;14.368;2024-03-23T12:27:03;99291.75;;;13.03;63.08
65553;BME280;72126;51.560;14.368;2024-03-23T12:29:29;99289.94;;;13.04;63.05
65553;BME280;72126;51.560;14.368;2024-03-23T12:31:55;99281.03;;;13.05;62.82
65553;BME280;72126;51.560;14.368;2024-03-23T12:34:20;99298.41;;;13.06;63.28
65553;BME280;72126;51.560;14.368;2024-03-23T12:36:45;99287.91;;;13.06;63.36
65553;BME280;72126;51.560;14.368;2024-03-23T12:39:10;99292.16;;;13.07;63.22
65553;BME280;72126;51.560;14.368;2024-03-23T12:41:35;99295.59;;;13.07;63.12
65553;BME280;72126;51.560;14.368;2024-03-23T12:44:00;99298.03;;;13.09;63.26
65553;BME280;72126;51.560;14.368;2024-03-23T12:46:26;99300.66;;;13.09;63.45
65553;BME280;72126;51.560;14.368;2024-03-23T12:48:51;99290.34;;;13.07;63.31
65553;BME280;72126;51.560;14.368;2024-03-23T12:51:16;99289.16;;;13.10;63.20
65553;BME280;72126;51.560;14.368;2024-03-23T12:53:42;99292.78;;;13.09;63.52
65553;BME280;72126;51.560;14.368;2024-03-23T12:56:07;99300.47;;;13.10;63.31
65553;BME280;72126;51.560;14.368;2024-03-23T12:58:32;99298.66;;;13.11;63.19
65553;BME280;72126;51.560;14.368;2024-03-23T13:00:58;99293.19;;;13.12;63.16
65553;BME280;72126;51.560;14.368;2024-03-23T13:03:23;99296.03;;;13.11;63.49
65553;BME280;72126;51.560;14.368;2024-03-23T13:05:52;99296.84;;;13.11;63.55
65553;BME280;72126;51.560;14.368;2024-03-23T13:08:17;99297.41;;;13.07;63.53
65553;BME280;72126;51.560;14.368;2024-03-23T13:10:42;99300.25;;;13.12;63.36
65553;BME280;72126;51.560;14.368;2024-03-23T13:13:07;99288.75;;;13.13;63.34
65553;BME280;72126;51.560;14.368;2024-03-23T13:15:32;99297.47;;;13.13;63.41
65553;BME280;72126;51.560;14.368;2024-03-23T13:17:58;99305.53;;;13.12;63.77
65553;BME280;72126;51.560;14.368;2024-03-23T13:20:23;99320.28;;;13.13;63.75
65553;BME280;72126;51.560;14.368;2024-03-23T13:22:48;99321.13;;;13.13;63.62
65553;BME280;72126;51.560;14.368;2024-03-23T13:25:13;99325.53;;;13.13;63.40
65553;BME280;72126;51.560;14.368;2024-03-23T13:27:38;99329.00;;;13.13;63.80
65553;BME280;72126;51.560;14.368;2024-03-23T13:30:04;99329.81;;;13.14;63.53
65553;BME280;72126;51.560;14.368;2024-03-23T13:32:29;99330.63;;;13.14;63.50
65553;BME280;72126;51.560;14.368;2024-03-23T13:34:55;99309.59;;;13.14;63.57
65553;BME280;72126;51.560;14.368;2024-03-23T13:37:20;99313.84;;;13.15;63.68
65553;BME280;72126;51.560;14.368;2024-03-23T13:39:45;99299.06;;;13.14;63.96
65553;BME280;72126;51.560;14.368;2024-03-23T13:42:10;99295.66;;;13.14;63.48
65553;BME280;72126;51.560;14.368;2024-03-23T13:44:35;99266.75;;;13.14;63.84
65553;BME280;72126;51.560;14.368;2024-03-23T13:47:00;99278.06;;;13.14;64.03
65553;BME280;72126;51.560;14.368;2024-03-23T13:49:27;99314.03;;;13.14;64.03
65553;BME280;72126;51.560;14.368;2024-03-23T13:51:54;99344.56;;;13.15;63.83